sensor_id;sensor_type;location;lat;lon;timestamp;P1;durP1;ratioP1;P2;durP2;ratioP2
44642;SDS011;33930;-34.276;150.954;2022-12-29T00:01:07;18.80;;;2.30;;
44642;SDS011;33930;-34.276;150.954;2022-12-29T00:04:30;15.43;;;2.83;;
44642;SDS011;33930;-34.276;150.954;2022-12-29T00:07:20;12.05;;;2.17;;
44642;SDS011;33930;-34.276;150.954;2022-12-29T00:09:48;21.38;;;3.38;;
44642;SDS011;33930;-34.276;150.954;2022-12-29T00:12:51;22.60;;;3.47;;
44642;SDS011;33930;-34.276;150.954;2022-12-29T00:16:06;18.58;;;2.67;;
44642;SDS011;33930;-34.276;150.954;2022-12-29T00:19:12;14.68;;;3.17;;
44642;SDS011;33930;-34.276;150.954;2022-12-29T00:22:12;22.00;;;2.60;;
44642;SDS011;33930;-34.276;150.954;2022-12-29T00:25:09;14.15;;;2.53;;
44642;SDS011;33930;-34.276;150.954;2022-12-29T00:28:04;10.73;;;2.10;;
44642;SDS011;33930;-34.276;150.954;2022-12-29T00:30:58;23.58;;;3.30;;
44642;SDS011;33930;-34.276;150.954;2022-12-29T00:34:10;21.42;;;3.05;;
44642;SDS011;33930;-34.276;150.954;2022-12-29T00:37:32;17.13;;;2.55;;
44642;SDS011;33930;-34.276;150.954;2022-12-29T00:40:50;14.57;;;2.65;;
44642;SDS011;33930;-34.276;150.954;2022-12-29T00:43:58;23.23;;;3.63;;
44642;SDS011;33930;-34.276;150.954;2022-12-29T00:46:41;14.32;;;3.25;;
44642;SDS011;33930;-34.276;150.954;2022-12-29T00:49:13;19.27;;;3.47;;
44642;SDS011;33930;-34.276;150.954;2022-12-29T00:52:06;18.48;;;3.00;;
44642;SDS011;33930;-34.276;150.954;2022-12-29T00:55:03;23.35;;;3.30;;
44642;SDS011;33930;-34.276;150.954;2022-12-29T00:57:36;15.43;;;2.38;;
44642;SDS011;33930;-34.276;150.954;2022-12-29T01:00:50;18.60;;;3.08;;
44642;SDS011;33930;-34.276;150.954;2022-12-29T01:04:10;21.92;;;3.05;;
44642;SDS011;33930;-34.276;150.954;2022-12-29T01:07:11;17.90;;;2.95;;
44642;SDS011;33930;-34.276;150.954;2022-12-29T01:10:18;20.88;;;3.78;;
44642;SDS011;33930;-34.276;150.954;2022-12-29T01:12:55;28.17;;;3.50;;
44642;SDS011;33930;-34.276;150.954;2022-12-29T01:15:53;17.73;;;3.25;;
44642;SDS011;33930;-34.276;150.954;2022-12-29T01:18:23;22.77;;;3.22;;
44642;SDS011;33930;-34.276;150.954;2022-12-29T01:21:00;17.63;;;3.70;;
44642;SDS011;33930;-34.276;150.954;2022-12-29T01:23:45;22.33;;;4.73;;
44642;SDS011;33930;-34.276;150.954;2022-12-29T01:26:14;20.40;;;3.58;;
44642;SDS011;33930;-34.276;150.954;2022-12-29T01:28:47;23.17;;;2.85;;
44642;SDS011;33930;-34.276;150.954;2022-12-29T01:31:28;17.88;;;3.67;;
44642;SDS011;33930;-34.276;150.954;2022-12-29T01:34:52;20.35;;;4.18;;
44642;SDS011;33930;-34.276;150.954;2022-12-29T01:37:27;20.90;;;3.55;;
44642;SDS011;33930;-34.276;150.954;2022-12-29T01:40:03;16.55;;;2.90;;
44642;SDS011;33930;-34.276;150.954;2022-12-29T01:43:09;15.80;;;2.95;;
44642;SDS011;33930;-34.276;150.954;2022-12-29T01:45:50;13.88;;;2.65;;
44642;SDS011;33930;-34.276;150.954;2022-12-29T01:48:39;19.38;;;3.60;;
44642;SDS011;33930;-34.276;150.954;2022-12-29T01:51:14;14.38;;;2.92;;
44642;SDS011;33930;-34.276;150.954;2022-12-29T01:54:11;18.40;;;3.50;;
44642;SDS011;33930;-34.276;150.954;2022-12-29T01:57:21;19.58;;;3.92;;
44642;SDS011;33930;-34.276;150.954;2022-12-29T02:00:11;15.38;;;3.28;;
44642;SDS011;33930;-34.276;150.954;2022-12-29T02:06:40;17.45;;;2.83;;
44642;SDS011;33930;-34.276;150.954;2022-12-29T02:09:15;21.80;;;2.95;;
44642;SDS011;33930;-34.276;150.954;2022-12-29T02:11:59;16.15;;;2.78;;
44642;SDS011;33930;-34.276;150.954;2022-12-29T02:14:32;16.67;;;2.85;;
44642;SDS011;33930;-34.276;150.954;2022-12-29T02:27:53;22.70;;;2.80;;
44642;SDS011;33930;-34.276;150.954;2022-12-29T02:37:58;17.77;;;3.25;;
44642;SDS011;33930;-34.276;150.954;2022-12-29T02:44:24;17.70;;;3.63;;
44642;SDS011;33930;-34.276;150.954;2022-12-29T02:47:16;13.15;;;2.72;;
44642;SDS011;33930;-34.276;150.954;2022-12-29T02:53:23;14.27;;;3.00;;
44642;SDS011;33930;-34.276;150.954;2022-12-29T02:56:26;10.23;;;2.03;;
44642;SDS011;33930;-34.276;150.954;2022-12-29T02:58:54;17.88;;;3.50;;
44642;SDS011;33930;-34.276;150.954;2022-12-29T03:02:05;16.90;;;2.97;;
44642;SDS011;33930;-34.276;150.954;2022-12-29T03:11:33;14.77;;;3.83;;
44642;SDS011;33930;-34.276;150.954;2022-12-29T03:14:48;13.30;;;2.20;;
44642;SDS011;33930;-34.276;150.954;2022-12-29T03:21:20;14.00;;;2.35;;
44642;SDS011;33930;-34.276;150.954;2022-12-29T03:24:28;11.55;;;2.35;;
44642;SDS011;33930;-34.276;150.954;2022-12-29T03:27:02;21.35;;;3.13;;
44642;SDS011;33930;-34.276;150.954;2022-12-29T03:29:50;13.00;;;3.10;;
44642;SDS011;33930;-34.276;150.954;2022-12-29T03:32:25;18.15;;;2.40;;
44642;SDS011;33930;-34.276;150.954;2022-12-29T03:35:24;14.57;;;2.55;;
44642;SDS011;33930;-34.276;150.954;2022-12-29T03:38:05;17.60;;;3.13;;
44642;SDS011;33930;-34.276;150.954;2022-12-29T03:41:28;18.85;;;2.97;;
44642;SDS011;33930;-34.276;150.954;2022-12-29T03:44:37;8.02;;;2.25;;
44642;SDS011;33930;-34.276;150.954;2022-12-29T03:47:56;19.23;;;2.65;;
44642;SDS011;33930;-34.276;150.954;2022-12-29T03:50:43;15.25;;;3.35;;
44642;SDS011;33930;-34.276;150.954;2022-12-29T03:53:15;13.00;;;1.98;;
44642;SDS011;33930;-34.276;150.954;2022-12-29T03:56:25;18.75;;;3.30;;
44642;SDS011;33930;-34.276;150.954;2022-12-29T03:59:12;19.08;;;3.45;;
44642;SDS011;33930;-34.276;150.954;2022-12-29T04:02:05;13.38;;;2.45;;
44642;SDS011;33930;-34.276;150.954;2022-12-29T04:04:59;10.88;;;2.30;;
44642;SDS011;33930;-34.276;150.954;2022-12-29T04:08:01;18.13;;;2.47;;
44642;SDS011;33930;-34.276;150.954;2022-12-29T04:10:55;7.97;;;2.38;;
44642;SDS011;33930;-34.276;150.954;2022-12-29T04:13:32;11.13;;;2.90;;
44642;SDS011;33930;-34.276;150.954;2022-12-29T04:16:46;15.20;;;2.92;;
44642;SDS011;33930;-34.276;150.954;2022-12-29T04:20:01;17.55;;;3.15;;
44642;SDS011;33930;-34.276;150.954;2022-12-29T04:22:58;17.95;;;2.78;;
44642;SDS011;33930;-34.276;150.954;2022-12-29T04:25:55;22.50;;;3.45;;
44642;SDS011;33930;-34.276;150.954;2022-12-29T04:28:43;13.73;;;3.15;;
44642;SDS011;33930;-34.276;150.954;2022-12-29T04:31:24;11.00;;;2.20;;
44642;SDS011;33930;-34.276;150.954;2022-12-29T04:34:08;13.23;;;2.40;;
44642;SDS011;33930;-34.276;150.954;2022-12-29T04:37:04;21.35;;;2.63;;
44642;SDS011;33930;-34.276;150.954;2022-12-29T04:39:41;14.27;;;2.30;;
44642;SDS011;33930;-34.276;150.954;2022-12-29T04:42:18;19.50;;;3.58;;
44642;SDS011;33930;-34.276;150.954;2022-12-29T04:45:13;12.68;;;2.97;;
44642;SDS011;33930;-34.276;150.954;2022-12-29T04:47:51;19.15;;;3.10;;
44642;SDS011;33930;-34.276;150.954;2022-12-29T04:50:46;18.67;;;3.05;;
44642;SDS011;33930;-34.276;150.954;2022-12-29T04:53:21;19.00;;;3.08;;
44642;SDS011;33930;-34.276;150.954;2022-12-29T04:55:53;14.98;;;3.03;;
44642;SDS011;33930;-34.276;150.954;2022-12-29T04:58:41;11.38;;;2.45;;
44642;SDS011;33930;-34.276;150.954;2022-12-29T05:01:24;12.32;;;2.60;;
44642;SDS011;33930;-34.276;150.954;2022-12-29T05:04:22;17.70;;;3.28;;
44642;SDS011;33930;-34.276;150.954;2022-12-29T05:06:51;14.15;;;2.72;;
44642;SDS011;33930;-34.276;150.954;2022-12-29T05:09:31;15.75;;;3.03;;
44642;SDS011;33930;-34.276;150.954;2022-12-29T05:12:33;31.25;;;4.22;;
44642;SDS011;33930;-34.276;150.954;2022-12-29T05:15:09;16.35;;;2.58;;
44642;SDS011;33930;-34.276;150.954;2022-12-29T05:18:11;11.85;;;2.60;;
44642;SDS011;33930;-34.276;150.954;2022-12-29T05:21:27;8.98;;;2.22;;
44642;SDS011;33930;-34.276;150.954;2022-12-29T05:23:56;20.10;;;3.15;;
44642;SDS011;33930;-34.276;150.954;2022-12-29T05:26:52;18.00;;;4.50;;
44642;SDS011;33930;-34.276;150.954;2022-12-29T05:29:57;16.58;;;3.67;;
44642;SDS011;33930;-34.276;150.954;2022-12-29T05:33:20;20.10;;;4.65;;
44642;SDS011;33930;-34.276;150.954;2022-12-29T05:35:55;17.55;;;4.05;;
44642;SDS011;33930;-34.276;150.954;2022-12-29T05:39:02;23.65;;;4.72;;
44642;SDS011;33930;-34.276;150.954;2022-12-29T05:42:03;18.38;;;5.65;;
44642;SDS011;33930;-34.276;150.954;2022-12-29T05:44:52;20.25;;;5.45;;
44642;SDS011;33930;-34.276;150.954;2022-12-29T05:47:55;16.80;;;3.30;;
44642;SDS011;33930;-34.276;150.954;2022-12-29T05:50:47;10.35;;;2.78;;
44642;SDS011;33930;-34.276;150.954;2022-12-29T05:53:35;12.50;;;2.22;;
44642;SDS011;33930;-34.276;150.954;2022-12-29T05:57:02;14.55;;;2.75;;
44642;SDS011;33930;-34.276;150.954;2022-12-29T05:59:54;16.58;;;3.00;;
44642;SDS011;33930;-34.276;150.954;2022-12-29T06:02:29;21.83;;;3.70;;
44642;SDS011;33930;-34.276;150.954;2022-12-29T06:09:12;17.48;;;3.47;;
44642;SDS011;33930;-34.276;150.954;2022-12-29T06:11:45;19.73;;;3.45;;
44642;SDS011;33930;-34.276;150.954;2022-12-29T06:14:22;17.10;;;3.70;;
44642;SDS011;33930;-34.276;150.954;2022-12-29T06:16:58;9.15;;;3.65;;
44642;SDS011;33930;-34.276;150.954;2022-12-29T06:19:57;20.30;;;4.93;;
44642;SDS011;33930;-34.276;150.954;2022-12-29T06:22:27;14.52;;;4.15;;
44642;SDS011;33930;-34.276;150.954;2022-12-29T06:25:02;22.40;;;4.30;;
44642;SDS011;33930;-34.276;150.954;2022-12-29T06:28:05;13.70;;;3.25;;
44642;SDS011;33930;-34.276;150.954;2022-12-29T06:30:36;19.67;;;3.28;;
44642;SDS011;33930;-34.276;150.954;2022-12-29T06:33:27;17.63;;;3.60;;
44642;SDS011;33930;-34.276;150.954;2022-12-29T06:36:36;14.57;;;4.07;;
44642;SDS011;33930;-34.276;150.954;2022-12-29T06:39:53;20.17;;;3.45;;
44642;SDS011;33930;-34.276;150.954;2022-12-29T06:42:41;16.53;;;3.40;;
44642;SDS011;33930;-34.276;150.954;2022-12-29T06:45:42;16.42;;;3.05;;
44642;SDS011;33930;-34.276;150.954;2022-12-29T06:48:55;16.27;;;2.92;;
44642;SDS011;33930;-34.276;150.954;2022-12-29T06:52:14;18.58;;;2.60;;
44642;SDS011;33930;-34.276;150.954;2022-12-29T06:55:28;12.15;;;2.65;;
44642;SDS011;33930;-34.276;150.954;2022-12-29T06:58:25;15.45;;;2.95;;
44642;SDS011;33930;-34.276;150.954;2022-12-29T07:01:52;19.15;;;3.50;;
44642;SDS011;33930;-34.276;150.954;2022-12-29T07:04:21;6.60;;;1.73;;
44642;SDS011;33930;-34.276;150.954;2022-12-29T07:10:21;16.65;;;3.53;;
44642;SDS011;33930;-34.276;150.954;2022-12-29T07:13:16;12.82;;;2.42;;
44642;SDS011;33930;-34.276;150.954;2022-12-29T07:16:20;10.55;;;2.88;;
44642;SDS011;33930;-34.276;150.954;2022-12-29T07:19:27;14.73;;;2.60;;
44642;SDS011;33930;-34.276;150.954;2022-12-29T07:22:10;17.47;;;2.60;;
44642;SDS011;33930;-34.276;150.954;2022-12-29T07:24:38;15.00;;;2.85;;
44642;SDS011;33930;-34.276;150.954;2022-12-29T07:27:14;27.23;;;3.72;;
44642;SDS011;33930;-34.276;150.954;2022-12-29T07:29:56;18.75;;;3.33;;
44642;SDS011;33930;-34.276;150.954;2022-12-29T07:32:50;16.42;;;2.90;;
44642;SDS011;33930;-34.276;150.954;2022-12-29T07:35:59;15.73;;;3.42;;
44642;SDS011;33930;-34.276;150.954;2022-12-29T07:38:50;20.30;;;4.85;;
44642;SDS011;33930;-34.276;150.954;2022-12-29T07:41:20;25.65;;;10.98;;
44642;SDS011;33930;-34.276;150.954;2022-12-29T07:44:18;21.73;;;12.68;;
44642;SDS011;33930;-34.276;150.954;2022-12-29T07:46:51;18.13;;;7.05;;
44642;SDS011;33930;-34.276;150.954;2022-12-29T07:49:34;44.58;;;25.15;;
44642;SDS011;33930;-34.276;150.954;2022-12-29T07:52:33;31.70;;;14.60;;
44642;SDS011;33930;-34.276;150.954;2022-12-29T07:55:01;19.98;;;9.38;;
44642;SDS011;33930;-34.276;150.954;2022-12-29T07:57:39;26.35;;;9.73;;
44642;SDS011;33930;-34.276;150.954;2022-12-29T08:00:33;18.30;;;6.25;;
44642;SDS011;33930;-34.276;150.954;2022-12-29T08:03:29;11.00;;;4.03;;
44642;SDS011;33930;-34.276;150.954;2022-12-29T08:06:02;19.67;;;4.40;;
44642;SDS011;33930;-34.276;150.954;2022-12-29T08:09:08;19.05;;;4.57;;
44642;SDS011;33930;-34.276;150.954;2022-12-29T08:12:11;22.65;;;3.38;;
44642;SDS011;33930;-34.276;150.954;2022-12-29T08:15:28;21.52;;;4.15;;
44642;SDS011;33930;-34.276;150.954;2022-12-29T08:18:08;16.70;;;3.20;;
44642;SDS011;33930;-34.276;150.954;2022-12-29T08:21:24;15.93;;;3.17;;
44642;SDS011;33930;-34.276;150.954;2022-12-29T08:27:22;23.98;;;4.68;;
44642;SDS011;33930;-34.276;150.954;2022-12-29T08:30:26;17.35;;;3.83;;
44642;SDS011;33930;-34.276;150.954;2022-12-29T08:33:48;15.98;;;3.45;;
44642;SDS011;33930;-34.276;150.954;2022-12-29T08:36:58;19.08;;;3.22;;
44642;SDS011;33930;-34.276;150.954;2022-12-29T08:39:57;18.42;;;3.72;;
44642;SDS011;33930;-34.276;150.954;2022-12-29T08:42:52;8.20;;;3.03;;
44642;SDS011;33930;-34.276;150.954;2022-12-29T08:45:34;18.65;;;4.22;;
44642;SDS011;33930;-34.276;150.954;2022-12-29T08:48:36;12.18;;;4.40;;
44642;SDS011;33930;-34.276;150.954;2022-12-29T08:51:23;15.40;;;4.03;;
44642;SDS011;33930;-34.276;150.954;2022-12-29T08:54:31;13.25;;;3.10;;
44642;SDS011;33930;-34.276;150.954;2022-12-29T08:57:48;15.80;;;3.00;;
44642;SDS011;33930;-34.276;150.954;2022-12-29T09:00:49;21.27;;;3.67;;
44642;SDS011;33930;-34.276;150.954;2022-12-29T09:03:45;6.47;;;2.55;;
44642;SDS011;33930;-34.276;150.954;2022-12-29T09:06:22;14.27;;;3.33;;
44642;SDS011;33930;-34.276;150.954;2022-12-29T09:09:25;20.10;;;4.35;;
44642;SDS011;33930;-34.276;150.954;2022-12-29T09:12:07;17.77;;;3.50;;
44642;SDS011;33930;-34.276;150.954;2022-12-29T09:17:46;15.27;;;3.92;;
44642;SDS011;33930;-34.276;150.954;2022-12-29T09:23:55;11.43;;;2.95;;
44642;SDS011;33930;-34.276;150.954;2022-12-29T09:26:56;8.75;;;2.90;;
44642;SDS011;33930;-34.276;150.954;2022-12-29T09:29:41;21.92;;;3.58;;
44642;SDS011;33930;-34.276;150.954;2022-12-29T09:32:15;14.02;;;3.38;;
44642;SDS011;33930;-34.276;150.954;2022-12-29T09:35:11;10.45;;;2.92;;
44642;SDS011;33930;-34.276;150.954;2022-12-29T09:37:50;18.83;;;3.72;;
44642;SDS011;33930;-34.276;150.954;2022-12-29T09:40:33;17.02;;;3.40;;
44642;SDS011;33930;-34.276;150.954;2022-12-29T09:46:46;10.00;;;2.95;;
44642;SDS011;33930;-34.276;150.954;2022-12-29T09:50:23;21.63;;;4.32;;
44642;SDS011;33930;-34.276;150.954;2022-12-29T09:53:20;7.88;;;2.58;;
44642;SDS011;33930;-34.276;150.954;2022-12-29T09:56:41;10.00;;;3.22;;
44642;SDS011;33930;-34.276;150.954;2022-12-29T09:59:41;13.85;;;3.10;;
44642;SDS011;33930;-34.276;150.954;2022-12-29T10:02:31;9.95;;;3.25;;
44642;SDS011;33930;-34.276;150.954;2022-12-29T10:05:56;12.18;;;3.13;;
44642;SDS011;33930;-34.276;150.954;2022-12-29T10:16:01;7.20;;;3.25;;
44642;SDS011;33930;-34.276;150.954;2022-12-29T10:19:27;12.70;;;3.30;;
44642;SDS011;33930;-34.276;150.954;2022-12-29T10:26:15;7.88;;;3.45;;
44642;SDS011;33930;-34.276;150.954;2022-12-29T10:29:18;14.57;;;3.78;;
44642;SDS011;33930;-34.276;150.954;2022-12-29T10:32:01;10.25;;;3.60;;
44642;SDS011;33930;-34.276;150.954;2022-12-29T10:34:59;9.07;;;2.58;;
44642;SDS011;33930;-34.276;150.954;2022-12-29T10:38:05;11.35;;;3.03;;
44642;SDS011;33930;-34.276;150.954;2022-12-29T10:47:12;13.73;;;3.85;;
44642;SDS011;33930;-34.276;150.954;2022-12-29T10:50:50;11.90;;;3.90;;
44642;SDS011;33930;-34.276;150.954;2022-12-29T10:53:35;11.95;;;3.25;;
44642;SDS011;33930;-34.276;150.954;2022-12-29T10:56:47;11.82;;;3.58;;
44642;SDS011;33930;-34.276;150.954;2022-12-29T11:06:28;9.85;;;2.97;;
44642;SDS011;33930;-34.276;150.954;2022-12-29T11:09:53;21.25;;;2.80;;
44642;SDS011;33930;-34.276;150.954;2022-12-29T11:13:27;12.70;;;3.10;;
44642;SDS011;33930;-34.276;150.954;2022-12-29T11:19:49;12.65;;;2.35;;
44642;SDS011;33930;-34.276;150.954;2022-12-29T11:22:36;9.82;;;2.05;;
44642;SDS011;33930;-34.276;150.954;2022-12-29T11:29:22;15.38;;;2.45;;
44642;SDS011;33930;-34.276;150.954;2022-12-29T11:32:26;9.20;;;1.90;;
44642;SDS011;33930;-34.276;150.954;2022-12-29T11:35:38;11.10;;;2.30;;
44642;SDS011;33930;-34.276;150.954;2022-12-29T11:38:20;7.90;;;2.47;;
44642;SDS011;33930;-34.276;150.954;2022-12-29T11:41:28;10.50;;;1.83;;
44642;SDS011;33930;-34.276;150.954;2022-12-29T11:44:32;9.30;;;1.80;;
44642;SDS011;33930;-34.276;150.954;2022-12-29T11:51:07;12.35;;;2.50;;
44642;SDS011;33930;-34.276;150.954;2022-12-29T11:57:50;8.70;;;1.90;;
44642;SDS011;33930;-34.276;150.954;2022-12-29T12:04:15;13.35;;;2.58;;
44642;SDS011;33930;-34.276;150.954;2022-12-29T12:07:47;7.53;;;1.70;;
44642;SDS011;33930;-34.276;150.954;2022-12-29T12:27:04;7.33;;;2.17;;
44642;SDS011;33930;-34.276;150.954;2022-12-29T12:38:33;5.82;;;1.58;;
44642;SDS011;33930;-34.276;150.954;2022-12-29T12:51:16;4.05;;;1.70;;
44642;SDS011;33930;-34.276;150.954;2022-12-29T12:58:09;3.63;;;2.13;;
44642;SDS011;33930;-34.276;150.954;2022-12-29T13:01:18;4.78;;;2.17;;
44642;SDS011;33930;-34.276;150.954;2022-12-29T13:16:48;4.32;;;2.17;;
44642;SDS011;33930;-34.276;150.954;2022-12-29T13:23:45;11.85;;;2.10;;
44642;SDS011;33930;-34.276;150.954;2022-12-29T13:37:24;4.32;;;1.80;;
44642;SDS011;33930;-34.276;150.954;2022-12-29T13:40:56;3.30;;;1.40;;
44642;SDS011;33930;-34.276;150.954;2022-12-29T13:43:55;13.82;;;1.70;;
44642;SDS011;33930;-34.276;150.954;2022-12-29T13:46:48;5.57;;;1.75;;
44642;SDS011;33930;-34.276;150.954;2022-12-29T13:50:14;4.28;;;1.85;;
44642;SDS011;33930;-34.276;150.954;2022-12-29T13:56:48;2.67;;;1.55;;
44642;SDS011;33930;-34.276;150.954;2022-12-29T13:59:54;4.50;;;1.67;;
44642;SDS011;33930;-34.276;150.954;2022-12-29T14:05:37;5.03;;;2.28;;
44642;SDS011;33930;-34.276;150.954;2022-12-29T14:08:58;3.22;;;2.08;;
44642;SDS011;33930;-34.276;150.954;2022-12-29T14:11:38;5.43;;;2.38;;
44642;SDS011;33930;-34.276;150.954;2022-12-29T14:21:22;4.53;;;1.70;;
44642;SDS011;33930;-34.276;150.954;2022-12-29T14:29:52;5.35;;;1.90;;
44642;SDS011;33930;-34.276;150.954;2022-12-29T14:35:01;5.47;;;2.38;;
44642;SDS011;33930;-34.276;150.954;2022-12-29T14:38:43;6.22;;;2.10;;
44642;SDS011;33930;-34.276;150.954;2022-12-29T14:48:55;6.68;;;2.03;;
44642;SDS011;33930;-34.276;150.954;2022-12-29T14:52:23;7.63;;;2.17;;
44642;SDS011;33930;-34.276;150.954;2022-12-29T14:55:54;4.18;;;1.67;;
44642;SDS011;33930;-34.276;150.954;2022-12-29T15:02:14;7.10;;;1.80;;
44642;SDS011;33930;-34.276;150.954;2022-12-29T15:04:53;9.48;;;1.73;;
44642;SDS011;33930;-34.276;150.954;2022-12-29T15:08:05;4.80;;;1.85;;
44642;SDS011;33930;-34.276;150.954;2022-12-29T15:21:39;6.10;;;1.37;;
44642;SDS011;33930;-34.276;150.954;2022-12-29T15:24:24;5.72;;;1.55;;
44642;SDS011;33930;-34.276;150.954;2022-12-29T15:27:14;7.72;;;2.33;;
44642;SDS011;33930;-34.276;150.954;2022-12-29T15:30:24;4.65;;;1.70;;
44642;SDS011;33930;-34.276;150.954;2022-12-29T15:33:42;5.38;;;1.38;;
44642;SDS011;33930;-34.276;150.954;2022-12-29T15:36:51;10.20;;;1.80;;
44642;SDS011;33930;-34.276;150.954;2022-12-29T15:40:21;9.65;;;2.25;;
44642;SDS011;33930;-34.276;150.954;2022-12-29T15:47:02;8.48;;;2.83;;
44642;SDS011;33930;-34.276;150.954;2022-12-29T15:50:34;9.30;;;3.55;;
44642;SDS011;33930;-34.276;150.954;2022-12-29T15:53:49;11.45;;;2.30;;
44642;SDS011;33930;-34.276;150.954;2022-12-29T15:56:56;10.38;;;2.22;;
44642;SDS011;33930;-34.276;150.954;2022-12-29T16:03:05;6.88;;;1.70;;
44642;SDS011;33930;-34.276;150.954;2022-12-29T16:09:56;13.35;;;2.38;;
44642;SDS011;33930;-34.276;150.954;2022-12-29T16:12:51;8.18;;;1.98;;
44642;SDS011;33930;-34.276;150.954;2022-12-29T16:15:23;10.75;;;2.00;;
44642;SDS011;33930;-34.276;150.954;2022-12-29T16:18:11;9.18;;;1.88;;
44642;SDS011;33930;-34.276;150.954;2022-12-29T16:21:05;12.52;;;1.98;;
44642;SDS011;33930;-34.276;150.954;2022-12-29T16:23:52;7.07;;;1.70;;
44642;SDS011;33930;-34.276;150.954;2022-12-29T16:30:32;4.72;;;1.63;;
44642;SDS011;33930;-34.276;150.954;2022-12-29T16:33:52;11.27;;;1.65;;
44642;SDS011;33930;-34.276;150.954;2022-12-29T16:40:28;10.35;;;1.60;;
44642;SDS011;33930;-34.276;150.954;2022-12-29T16:47:18;11.38;;;1.80;;
44642;SDS011;33930;-34.276;150.954;2022-12-29T16:56:15;7.93;;;2.15;;
44642;SDS011;33930;-34.276;150.954;2022-12-29T17:02:45;7.70;;;1.73;;
44642;SDS011;33930;-34.276;150.954;2022-12-29T17:05:47;9.77;;;2.00;;
44642;SDS011;33930;-34.276;150.954;2022-12-29T17:08:48;9.93;;;1.45;;
44642;SDS011;33930;-34.276;150.954;2022-12-29T17:11:57;6.93;;;1.88;;
44642;SDS011;33930;-34.276;150.954;2022-12-29T17:18:03;14.23;;;2.97;;
44642;SDS011;33930;-34.276;150.954;2022-12-29T17:20:54;9.85;;;2.58;;
44642;SDS011;33930;-34.276;150.954;2022-12-29T17:23:24;9.02;;;2.10;;
44642;SDS011;33930;-34.276;150.954;2022-12-29T17:26:00;7.00;;;1.75;;
44642;SDS011;33930;-34.276;150.954;2022-12-29T17:28:39;8.32;;;1.63;;
44642;SDS011;33930;-34.276;150.954;2022-12-29T17:35:20;11.27;;;2.03;;
44642;SDS011;33930;-34.276;150.954;2022-12-29T17:41:31;13.43;;;2.45;;
44642;SDS011;33930;-34.276;150.954;2022-12-29T17:50:05;6.82;;;2.00;;
44642;SDS011;33930;-34.276;150.954;2022-12-29T17:59:28;11.35;;;2.30;;
44642;SDS011;33930;-34.276;150.954;2022-12-29T18:05:54;7.50;;;1.90;;
44642;SDS011;33930;-34.276;150.954;2022-12-29T18:09:04;10.35;;;2.45;;
44642;SDS011;33930;-34.276;150.954;2022-12-29T18:15:33;12.20;;;2.03;;
44642;SDS011;33930;-34.276;150.954;2022-12-29T18:19:05;7.32;;;2.00;;
44642;SDS011;33930;-34.276;150.954;2022-12-29T18:22:29;8.13;;;1.98;;
44642;SDS011;33930;-34.276;150.954;2022-12-29T18:26:00;8.20;;;2.42;;
44642;SDS011;33930;-34.276;150.954;2022-12-29T18:28:49;11.65;;;2.78;;
44642;SDS011;33930;-34.276;150.954;2022-12-29T18:31:46;7.82;;;2.53;;
44642;SDS011;33930;-34.276;150.954;2022-12-29T18:34:57;10.82;;;1.65;;
44642;SDS011;33930;-34.276;150.954;2022-12-29T18:37:54;9.80;;;2.17;;
44642;SDS011;33930;-34.276;150.954;2022-12-29T18:46:59;12.30;;;2.25;;
44642;SDS011;33930;-34.276;150.954;2022-12-29T18:49:56;12.27;;;2.42;;
44642;SDS011;33930;-34.276;150.954;2022-12-29T18:52:30;10.98;;;2.20;;
44642;SDS011;33930;-34.276;150.954;2022-12-29T18:55:55;13.15;;;2.25;;
44642;SDS011;33930;-34.276;150.954;2022-12-29T18:59:03;13.57;;;2.22;;
44642;SDS011;33930;-34.276;150.954;2022-12-29T19:01:43;7.97;;;1.70;;
44642;SDS011;33930;-34.276;150.954;2022-12-29T19:05:01;15.60;;;2.10;;
44642;SDS011;33930;-34.276;150.954;2022-12-29T19:08:12;9.02;;;2.10;;
44642;SDS011;33930;-34.276;150.954;2022-12-29T19:11:49;14.93;;;3.00;;
44642;SDS011;33930;-34.276;150.954;2022-12-29T19:14:32;8.18;;;2.05;;
44642;SDS011;33930;-34.276;150.954;2022-12-29T19:24:47;6.82;;;1.63;;
44642;SDS011;33930;-34.276;150.954;2022-12-29T19:27:20;10.88;;;2.80;;
44642;SDS011;33930;-34.276;150.954;2022-12-29T19:29:58;8.68;;;3.10;;
44642;SDS011;33930;-34.276;150.954;2022-12-29T19:32:25;11.40;;;3.08;;
44642;SDS011;33930;-34.276;150.954;2022-12-29T19:34:52;8.40;;;3.13;;
44642;SDS011;33930;-34.276;150.954;2022-12-29T19:40:47;8.65;;;3.15;;
44642;SDS011;33930;-34.276;150.954;2022-12-29T19:43:15;9.90;;;4.20;;
44642;SDS011;33930;-34.276;150.954;2022-12-29T19:48:42;7.88;;;4.07;;
44642;SDS011;33930;-34.276;150.954;2022-12-29T19:51:11;11.15;;;5.00;;
44642;SDS011;33930;-34.276;150.954;2022-12-29T19:53:43;13.20;;;5.73;;
44642;SDS011;33930;-34.276;150.954;2022-12-29T19:56:17;12.30;;;6.57;;
44642;SDS011;33930;-34.276;150.954;2022-12-29T20:01:42;11.13;;;6.70;;
44642;SDS011;33930;-34.276;150.954;2022-12-29T20:04:10;11.68;;;6.95;;
44642;SDS011;33930;-34.276;150.954;2022-12-29T20:06:37;9.38;;;6.10;;
44642;SDS011;33930;-34.276;150.954;2022-12-29T20:09:04;9.55;;;6.22;;
44642;SDS011;33930;-34.276;150.954;2022-12-29T20:11:33;11.70;;;5.90;;
44642;SDS011;33930;-34.276;150.954;2022-12-29T20:14:20;8.88;;;5.00;;
44642;SDS011;33930;-34.276;150.954;2022-12-29T20:16:47;7.18;;;4.40;;
44642;SDS011;33930;-34.276;150.954;2022-12-29T20:19:18;7.47;;;4.43;;
44642;SDS011;33930;-34.276;150.954;2022-12-29T20:21:46;7.50;;;4.78;;
44642;SDS011;33930;-34.276;150.954;2022-12-29T20:24:13;10.68;;;4.25;;
44642;SDS011;33930;-34.276;150.954;2022-12-29T20:26:41;6.85;;;4.75;;
44642;SDS011;33930;-34.276;150.954;2022-12-29T20:29:08;10.20;;;4.70;;
44642;SDS011;33930;-34.276;150.954;2022-12-29T20:34:56;12.85;;;5.40;;
44642;SDS011;33930;-34.276;150.954;2022-12-29T20:37:29;12.80;;;5.95;;
44642;SDS011;33930;-34.276;150.954;2022-12-29T20:39:57;10.07;;;5.25;;
44642;SDS011;33930;-34.276;150.954;2022-12-29T20:42:24;10.60;;;6.25;;
44642;SDS011;33930;-34.276;150.954;2022-12-29T20:44:55;15.32;;;5.22;;
44642;SDS011;33930;-34.276;150.954;2022-12-29T20:47:26;9.95;;;4.95;;
44642;SDS011;33930;-34.276;150.954;2022-12-29T20:49:53;8.85;;;4.82;;
44642;SDS011;33930;-34.276;150.954;2022-12-29T20:52:21;8.85;;;5.05;;
44642;SDS011;33930;-34.276;150.954;2022-12-29T20:54:48;7.07;;;4.53;;
44642;SDS011;33930;-34.276;150.954;2022-12-29T20:57:15;9.95;;;4.75;;
44642;SDS011;33930;-34.276;150.954;2022-12-29T20:59:42;6.35;;;4.35;;
44642;SDS011;33930;-34.276;150.954;2022-12-29T21:02:34;5.80;;;4.20;;
44642;SDS011;33930;-34.276;150.954;2022-12-29T21:05:57;8.70;;;4.25;;
44642;SDS011;33930;-34.276;150.954;2022-12-29T21:08:52;7.85;;;4.97;;
44642;SDS011;33930;-34.276;150.954;2022-12-29T21:11:20;6.18;;;4.43;;
44642;SDS011;33930;-34.276;150.954;2022-12-29T21:13:48;6.55;;;4.28;;
44642;SDS011;33930;-34.276;150.954;2022-12-29T21:16:17;5.30;;;3.50;;
44642;SDS011;33930;-34.276;150.954;2022-12-29T21:19:14;4.53;;;3.20;;
44642;SDS011;33930;-34.276;150.954;2022-12-29T21:21:41;3.90;;;3.20;;
44642;SDS011;33930;-34.276;150.954;2022-12-29T21:24:08;7.25;;;3.67;;
44642;SDS011;33930;-34.276;150.954;2022-12-29T21:26:35;5.45;;;3.08;;